Reinersville, Ohio
Current Conditions -  °F | °C
As of 4:53 AM on Tuesday 21 Oct 2014 (Local Time) from KZZV Reporting Station
Haze Haze  
Wind Chill: 47°   Ceiling: 7500
Heat Index: 47°   Visibility: 4mi
Dew Point: 46°   Wind: 3mph
Humidity: 97%   Direction: 230°SW
Pressure: 29.87"   Gusts: NA
Location:  39.6878°N, 81.7727°W
Report Text: KZZV 210853Z AUTO 23003KT 4SM BR BKN075 OVC090 08/08 A2987 RMK AO2 SLP115 T00830078 51000
Loading
Personal Weather Stations






























Interactive Weather Map
Tropical Storm Tracking
New forecast layout! Learn more

10-Day Weather Forecast

Advertisements
Track Severe Weather on mobile